Time;durP1;ratioP1;P1;durP2;ratioP2;P2;SDS_P1;SDS_P2;PMS_P1;PMS_P2;Temp;Humidity;BMP_temperature;BMP_pressure;BME280_temperature;BME280_humidity;BME280_pressure;Samples;Min_cycle;Max_cycle;Signal;HPM_P1;HPM_P2
2022/11/16 00:01:13;;;;;;;67.20;26.48;;;5.70;99.90;;;5.63;100.00;100352.03;5034598;28;20194;-79
2022/11/16 00:03:43;;;;;;;47.63;25.65;;;5.70;99.90;;;5.63;100.00;100352.03;5026174;28;20224;-79
2022/11/16 00:06:14;;;;;;;46.60;23.52;;;5.70;99.90;;;5.67;100.00;100354.16;5039489;28;20205;-82
2022/11/16 00:09:20;;;;;;;55.28;23.50;;;5.70;99.90;;;5.55;100.00;100350.28;5044227;28;20212;-80
2022/11/16 00:11:37;;;;;;;52.75;23.45;;;5.60;99.90;;;5.47;100.00;100352.22;5053558;28;20207;-80
2022/11/16 00:14:08;;;;;;;58.58;25.25;;;5.60;99.90;;;5.52;100.00;100350.63;5046203;28;20209;-80
2022/11/16 00:16:38;;;;;;;58.95;24.60;;;5.60;99.90;;;5.54;100.00;100353.13;5052439;28;20238;-80
2022/11/16 00:19:31;;;;;;;46.38;23.15;;;5.60;99.90;;;5.64;100.00;100351.84;5043615;28;20261;-81
2022/11/16 00:22:01;;;;;;;56.30;23.83;;;5.60;99.90;;;5.58;100.00;100349.06;5039727;28;20193;-82
2022/11/16 00:24:31;;;;;;;54.95;27.38;;;5.60;99.90;;;5.51;100.00;100346.28;5056963;28;20244;-80
2022/11/16 00:27:02;;;;;;;53.08;27.23;;;5.50;99.90;;;5.41;100.00;100347.56;5036855;28;20669;-81
2022/11/16 00:29:34;;;;;;;63.30;25.38;;;5.50;99.90;;;5.40;100.00;100352.09;5028924;28;20192;-81
2022/11/16 00:32:03;;;;;;;48.97;22.48;;;5.50;99.90;;;5.39;100.00;100354.94;5038812;28;20209;-80
2022/11/16 00:34:32;;;;;;;43.15;24.42;;;5.50;99.90;;;5.40;100.00;100346.72;5045968;28;20236;-81
2022/11/16 00:37:01;;;;;;;41.85;23.60;;;5.50;99.90;;;5.40;100.00;100357.47;5045368;28;20279;-79
2022/11/16 00:39:38;;;;;;;50.70;23.23;;;5.40;99.90;;;5.24;100.00;100346.84;5043672;28;20193;-79
2022/11/16 00:42:23;;;;;;;51.80;21.90;;;5.30;99.90;;;5.33;100.00;100344.94;5048723;28;20197;-81
2022/11/16 00:44:56;;;;;;;43.00;22.90;;;5.30;99.90;;;5.25;100.00;100345.84;5045220;28;20303;-80
2022/11/16 00:47:27;;;;;;;36.53;21.02;;;5.30;99.90;;;5.21;100.00;100342.72;5040666;28;20643;-80
2022/11/16 00:49:56;;;;;;;49.53;23.48;;;5.30;99.90;;;5.14;100.00;100338.22;5029107;28;20191;-81
2022/11/16 00:52:25;;;;;;;41.08;22.08;;;5.30;99.90;;;5.14;100.00;100335.53;5049963;28;20181;-79
2022/11/16 00:54:54;;;;;;;47.17;22.33;;;5.20;99.90;;;5.17;100.00;100335.19;5053125;28;20221;-81
2022/11/16 00:57:24;;;;;;;62.28;23.10;;;5.20;99.90;;;5.19;100.00;100349.25;5053461;28;20197;-79
2022/11/16 00:59:58;;;;;;;42.63;22.33;;;5.20;99.90;;;5.21;100.00;100347.22;5070659;28;20193;-81
2022/11/16 01:02:28;;;;;;;52.45;22.80;;;5.20;99.90;;;5.24;100.00;100336.97;5063289;28;20207;-81
2022/11/16 01:04:57;;;;;;;45.78;22.00;;;5.30;99.90;;;5.22;100.00;100340.84;5044102;28;20244;-80
2022/11/16 01:07:30;;;;;;;50.30;21.80;;;5.20;99.90;;;5.22;100.00;100344.38;5046699;28;20182;-81
2022/11/16 01:09:59;;;;;;;44.03;20.77;;;5.30;99.90;;;5.17;100.00;100340.56;5048981;28;20190;-80
2022/11/16 01:12:28;;;;;;;47.53;20.95;;;5.20;99.90;;;5.09;100.00;100348.66;5064364;28;20237;-81
2022/11/16 01:14:58;;;;;;;52.85;23.40;;;5.20;99.90;;;5.11;100.00;100352.84;5047291;28;20229;-80
2022/11/16 01:17:31;;;;;;;54.80;20.35;;;5.20;99.90;;;5.18;100.00;100355.66;5064591;28;20261;-80
2022/11/16 01:20:00;;;;;;;52.28;21.05;;;5.20;99.90;;;5.21;100.00;100347.22;5047656;28;20193;-80
2022/11/16 01:22:31;;;;;;;42.53;23.42;;;5.20;99.90;;;5.13;100.00;100342.75;5047990;28;20201;-80
2022/11/16 01:25:09;;;;;;;39.85;22.27;;;5.20;99.90;;;5.29;100.00;100349.00;5045443;28;20210;-81
2022/11/16 01:27:39;;;;;;;48.05;24.27;;;5.30;99.90;;;5.22;100.00;100344.38;5043718;28;20185;-81
2022/11/16 01:30:16;;;;;;;57.35;27.60;;;5.30;99.90;;;5.22;100.00;100346.22;5050910;28;20723;-80
2022/11/16 01:32:56;;;;;;;52.72;20.45;;;5.30;99.90;;;5.18;100.00;100345.72;5045820;28;20204;-80
2022/11/16 01:35:25;;;;;;;43.65;22.50;;;5.30;99.90;;;5.17;100.00;100352.13;5060390;28;20201;-81
2022/11/16 01:37:55;;;;;;;42.80;20.95;;;5.30;99.90;;;5.19;100.00;100343.88;5041420;28;20254;-82
2022/11/16 01:40:27;;;;;;;50.10;23.40;;;5.30;99.90;;;5.19;100.00;100342.03;5043709;28;20213;-80
2022/11/16 01:42:56;;;;;;;40.08;23.30;;;5.30;99.90;;;5.20;100.00;100337.50;5040595;28;20185;-80
2022/11/16 01:45:37;;;;;;;40.88;22.40;;;5.30;99.90;;;5.21;100.00;100331.13;5039306;28;20185;-81
2022/11/16 01:48:11;;;;;;;34.47;19.73;;;5.30;99.90;;;5.27;100.00;100333.09;5043293;28;20205;-82
2022/11/16 01:50:41;;;;;;;46.15;22.98;;;5.30;99.90;;;5.28;100.00;100321.34;5040869;28;20280;-79
2022/11/16 01:53:13;;;;;;;48.10;24.05;;;5.30;99.90;;;5.34;100.00;100317.09;5039543;28;20193;-79
2022/11/16 01:55:53;;;;;;;39.10;20.83;;;5.40;99.90;;;5.32;100.00;100317.31;5042414;28;20202;-80
2022/11/16 01:58:31;;;;;;;43.38;23.58;;;5.40;99.90;;;5.30;100.00;100313.13;5042099;28;20315;-81
2022/11/16 02:01:23;;;;;;;47.78;21.63;;;5.40;99.90;;;5.15;100.00;100313.06;5060068;28;20205;-79
2022/11/16 02:03:56;;;;;;;55.38;23.63;;;5.20;99.90;;;5.25;100.00;100302.94;5063849;28;20220;-79
2022/11/16 02:06:57;;;;;;;43.67;22.92;;;5.20;99.90;;;5.28;100.00;100309.78;5047087;28;20623;-80
2022/11/16 02:10:03;;;;;;;42.92;22.10;;;5.30;99.90;;;5.29;100.00;100295.34;5065391;28;20220;-81
2022/11/16 02:13:02;;;;;;;41.13;24.10;;;5.30;99.90;;;5.27;100.00;100287.50;5039099;28;20261;-80
2022/11/16 02:15:47;;;;;;;32.90;18.15;;;5.30;99.90;;;5.24;100.00;100282.47;5050345;28;20197;-81
2022/11/16 02:18:35;;;;;;;37.78;19.85;;;5.30;99.90;;;5.14;100.00;100288.09;5039971;28;20273;-81
2022/11/16 02:21:24;;;;;;;40.70;19.15;;;5.20;99.90;;;5.09;100.00;100278.94;5046068;28;20219;-81
2022/11/16 02:24:30;;;;;;;37.70;20.58;;;5.20;99.90;;;5.09;100.00;100284.28;5040877;28;20241;-81
2022/11/16 02:27:44;;;;;;;43.17;22.17;;;5.20;99.90;;;5.02;100.00;100269.97;5046290;28;20232;-80
2022/11/16 02:30:15;;;;;;;38.13;19.42;;;5.10;99.90;;;5.05;100.00;100264.22;5039867;28;20271;-81
2022/11/16 02:32:52;;;;;;;46.97;21.95;;;5.10;99.90;;;5.07;100.00;100270.25;5056468;28;20205;-82
2022/11/16 02:35:31;;;;;;;44.15;23.88;;;5.10;99.90;;;5.08;100.00;100258.53;5043804;28;20213;-80
2022/11/16 02:38:09;;;;;;;37.70;21.88;;;5.10;99.90;;;4.99;100.00;100254.22;5043792;28;20209;-78
2022/11/16 02:40:46;;;;;;;47.42;22.50;;;5.10;99.90;;;5.02;100.00;100262.75;5049316;28;20272;-79
2022/11/16 02:43:30;;;;;;;50.75;20.55;;;5.10;99.90;;;5.08;100.00;100250.47;5065492;28;20297;-80
2022/11/16 02:46:07;;;;;;;51.78;23.50;;;5.10;99.90;;;5.04;100.00;100241.94;5050487;28;20217;-80
2022/11/16 02:48:44;;;;;;;44.65;19.85;;;5.10;99.90;;;5.10;100.00;100245.75;5059865;28;20281;-79
2022/11/16 02:51:14;;;;;;;53.00;23.52;;;5.10;99.90;;;5.03;100.00;100237.59;5043095;28;20193;-81
2022/11/16 02:54:02;;;;;;;47.13;25.90;;;5.10;99.90;;;5.04;100.00;100239.25;5054945;28;20224;-78
2022/11/16 02:56:48;;;;;;;69.60;24.63;;;5.10;99.90;;;5.03;100.00;100242.13;5055655;28;20181;-79
2022/11/16 02:59:21;;;;;;;64.78;22.98;;;5.10;99.90;;;5.05;100.00;100235.56;5050802;28;20263;-80
2022/11/16 03:02:02;;;;;;;59.17;24.75;;;5.10;99.90;;;5.09;100.00;100236.84;5042863;28;20177;-82
2022/11/16 03:04:40;;;;;;;45.90;22.30;;;5.10;99.90;;;5.12;100.00;100228.47;5044470;28;20227;-82
2022/11/16 03:07:16;;;;;;;51.45;23.48;;;5.10;99.90;;;5.08;100.00;100239.75;5037332;28;20198;-80
2022/11/16 03:09:50;;;;;;;46.75;21.60;;;5.10;99.90;;;5.04;100.00;100241.94;5036860;28;20606;-81
2022/11/16 03:12:23;;;;;;;45.72;23.45;;;5.10;99.90;;;5.11;100.00;100240.19;5054115;28;20204;-80
2022/11/16 03:14:57;;;;;;;49.67;24.90;;;5.10;99.90;;;5.12;100.00;100254.44;5037178;28;20236;-81
2022/11/16 03:17:31;;;;;;;45.00;22.23;;;5.10;99.90;;;5.05;100.00;100256.19;5033789;28;20190;-80
2022/11/16 03:20:09;;;;;;;49.78;22.45;;;5.10;99.90;;;5.04;100.00;100238.41;5045012;28;20200;-80
2022/11/16 03:22:44;;;;;;;51.17;25.13;;;5.10;99.90;;;5.16;100.00;100245.00;5058803;28;20197;-80
2022/11/16 03:25:18;;;;;;;59.20;25.40;;;5.10;99.90;;;5.23;100.00;100248.63;5043803;28;20202;-79
2022/11/16 03:28:01;;;;;;;47.30;23.33;;;5.20;99.90;;;5.17;100.00;100233.28;5038038;28;20209;-79
2022/11/16 03:30:38;;;;;;;52.55;24.67;;;5.20;99.90;;;5.13;100.00;100238.16;5037083;28;20664;-81
2022/11/16 03:33:18;;;;;;;47.72;23.08;;;5.20;99.90;;;5.08;100.00;100235.19;5023470;28;20193;-80
2022/11/16 03:35:59;;;;;;;49.80;22.40;;;5.20;99.90;;;5.14;100.00;100239.00;5049195;28;20201;-81
2022/11/16 03:38:33;;;;;;;47.13;22.45;;;5.20;99.90;;;5.20;100.00;100239.09;5054821;28;20201;-81
2022/11/16 03:41:08;;;;;;;48.65;23.55;;;5.20;99.90;;;5.26;100.00;100229.50;5047744;28;20201;-79
2022/11/16 03:43:40;;;;;;;69.78;24.63;;;5.30;99.90;;;5.24;100.00;100234.19;5054056;28;20216;-80
2022/11/16 03:46:11;;;;;;;49.30;24.60;;;5.20;99.90;;;5.20;100.00;100231.06;5037072;28;20588;-80
2022/11/16 03:48:42;;;;;;;52.42;25.77;;;5.20;99.90;;;5.19;100.00;100231.22;5053555;28;20772;-80
2022/11/16 03:51:20;;;;;;;47.22;24.92;;;;;;;5.17;100.00;100241.31;5036762;28;20208;-81
2022/11/16 03:53:49;;;;;;;48.50;26.75;;;;;;;5.21;100.00;100245.31;5029928;28;20283;-80
2022/11/16 03:56:19;;;;;;;58.58;25.92;;;;;;;5.30;100.00;100246.03;5054569;28;20211;-81
2022/11/16 03:58:48;;;;;;;50.92;27.13;;;;;;;5.26;100.00;100248.28;5043252;28;20251;-80
2022/11/16 04:01:18;;;;;;;47.40;25.88;;;;;;;5.35;100.00;100249.00;5037101;28;20550;-81
2022/11/16 04:03:50;;;;;;;45.42;24.08;;;;;;;5.31;100.00;100237.81;5053992;28;20239;-81
2022/11/16 04:26:08;;;;;;;54.53;26.08;;;;;;;5.37;100.00;100210.25;5095912;28;20240;-80
2022/11/16 04:28:37;;;;;;;54.58;25.45;;;;;;;5.40;100.00;100209.88;5095429;28;20188;-80
2022/11/16 04:39:52;;;;;;;59.35;26.60;;;;;;;5.52;100.00;100215.59;5068666;28;20212;-78
2022/11/16 04:42:22;;;;;;;60.90;27.15;;;;;;;5.57;100.00;100211.34;5089367;28;20699;-80
2022/11/16 04:47:49;;;;;;;72.72;29.83;;;;;;;5.55;100.00;100201.81;5105971;28;20628;-80
2022/11/16 04:50:20;;;;;;;78.00;28.27;;;;;;;5.59;100.00;100200.44;5109574;28;20195;-80
2022/11/16 04:52:52;;;;;;;72.85;28.42;;;;;;;5.62;100.00;100194.69;5100559;28;20215;-80
2022/11/16 04:55:21;;;;;;;92.30;27.10;;;;;;;5.70;100.00;100191.91;5098629;28;20219;-80
2022/11/16 04:57:51;;;;;;;73.15;28.38;;;;;;;5.73;100.00;100196.06;5097072;28;20700;-80
2022/11/16 05:00:22;;;;;;;76.28;25.90;;;;;;;5.81;100.00;100195.97;5098854;28;20207;-81
2022/11/16 05:02:52;;;;;;;65.53;26.95;;;;;;;5.76;100.00;100191.13;5107503;28;20266;-80
2022/11/16 05:05:29;;;;;;;60.10;26.23;;;;;;;5.75;100.00;100192.19;5102222;28;20236;-81
2022/11/16 05:08:01;;;;;;;60.40;27.90;;;;;;;5.80;100.00;100187.09;5104914;28;20557;-79
2022/11/16 05:10:32;;;;;;;67.50;27.30;;;;;;;5.82;100.00;100187.72;5097493;28;20272;-80
2022/11/16 05:13:02;;;;;;;60.58;26.85;;;;;;;5.82;100.00;100194.91;5096024;28;20195;-79
2022/11/16 05:15:31;;;;;;;56.45;26.38;;;;;;;5.90;100.00;100189.50;5098230;28;20196;-80
2022/11/16 05:18:01;;;;;;;73.35;25.35;;;;;;;5.89;100.00;100185.97;5096404;28;20202;-79
2022/11/16 05:26:11;;;;;;;68.80;28.55;;;;;;;5.98;100.00;100189.38;5097006;28;20195;-80
2022/11/16 05:28:40;;;;;;;81.35;32.17;;;;;;;6.02;100.00;100196.84;5113720;28;20207;-81
2022/11/16 05:31:12;;;;;;;80.32;28.02;;;;;;;6.07;100.00;100194.44;5092483;28;20203;-80
2022/11/16 05:33:41;;;;;;;77.00;30.58;;;;;;;6.03;100.00;100197.69;5078821;28;20740;-81
2022/11/16 05:36:11;;;;;;;74.18;31.48;;;;;;;5.98;100.00;100200.13;5079906;28;20196;-81
2022/11/16 05:38:42;;;;;;;90.00;29.60;;;;;;;6.03;100.00;100203.91;5080974;28;20196;-79
2022/11/16 05:41:11;;;;;;;68.25;30.38;;;;;;;6.06;100.00;100200.81;5079745;28;20204;-83
2022/11/16 05:43:40;;;;;;;84.88;28.73;;;;;;;6.17;100.00;100204.88;5085399;28;20224;-83
2022/11/16 05:46:18;;;;;;;81.32;33.05;;;;;;;6.16;100.00;100213.94;5080876;28;20214;-81
2022/11/16 05:48:47;;;;;;;66.70;28.75;;;;;;;6.16;100.00;100207.75;5079528;28;20194;-82
2022/11/16 05:51:17;;;;;;;77.00;29.73;;;;;;;6.10;100.00;100203.94;5089098;28;20561;-80
2022/11/16 05:53:48;;;;;;;58.50;27.15;;;;;;;6.13;100.00;100213.50;5099813;28;20277;-80
2022/11/16 05:56:21;;;;;;;78.93;30.45;;;;;;;6.21;100.00;100222.28;5099687;28;20190;-82
2022/11/16 05:58:53;;;;;;;65.32;27.52;;;;;;;6.20;100.00;100223.28;5086463;28;20196;-78
2022/11/16 06:01:23;;;;;;;65.13;26.27;;;;;;;6.16;100.00;100219.31;5097845;28;20187;-78
2022/11/16 06:03:52;;;;;;;86.13;27.17;;;;;;;6.15;100.00;100219.53;5103199;28;20220;-80
2022/11/16 06:06:21;;;;;;;75.30;26.42;;;;;;;6.21;100.00;100216.91;5086706;28;20689;-80
2022/11/16 06:08:53;;;;;;;70.88;27.50;;;;;;;6.24;100.00;100215.69;5081958;28;20225;-78
2022/11/16 06:11:26;;;;;;;75.57;28.95;;;;;;;6.23;100.00;100220.25;5091519;28;20266;-79
2022/11/16 06:14:03;;;;;;;61.88;25.30;;;;;;;6.28;100.00;100216.97;5080189;28;20219;-79
2022/11/16 06:16:34;;;;;;;88.97;31.38;;;;;;;6.30;100.00;100221.13;5084374;28;20199;-79
2022/11/16 06:19:07;;;;;;;71.78;28.45;;;;;;;6.27;100.00;100216.16;5076783;28;20211;-79
2022/11/16 06:21:37;;;;;;;73.78;30.08;;;;;;;6.30;100.00;100222.97;5077874;28;20198;-81
2022/11/16 06:24:12;;;;;;;79.78;29.95;;;;;;;6.41;100.00;100234.06;5079116;28;20207;-82
2022/11/16 06:26:44;;;;;;;70.55;29.23;;;;;;;6.35;100.00;100232.13;5098161;28;20609;-80
2022/11/16 06:29:14;;;;;;;82.88;31.80;;;;;;;6.36;100.00;100231.13;5078698;28;20648;-81
2022/11/16 06:31:43;;;;;;;78.63;31.13;;;;;;;6.35;100.00;100231.28;5082572;28;20192;-80
2022/11/16 06:34:13;;;;;;;65.80;29.85;;;;;;;6.36;100.00;100231.13;5084580;28;20220;-79
2022/11/16 06:58:31;;;;;;;59.75;25.02;;;;;;;6.22;100.00;100242.75;5102538;28;20187;-79
2022/11/16 07:01:07;;;;;;;72.93;27.10;;;;;;;6.24;100.00;100243.41;5101047;28;20211;-80
2022/11/16 07:03:38;;;;;;;69.68;28.25;;;;;;;6.34;100.00;100243.91;5094392;28;20215;-79
2022/11/16 07:06:10;;;;;;;80.00;29.08;;;;;;;6.28;100.00;100249.22;5088619;28;20187;-83
2022/11/16 07:08:42;;;;;;;73.80;30.15;;;;;;;6.25;100.00;100234.28;5100575;28;20263;-83
2022/11/16 07:11:12;;;;;;;69.85;27.00;;;;;;;6.25;100.00;100245.03;5101734;28;20176;-83
2022/11/16 07:13:43;;;;;;;67.57;28.33;;;;;;;6.31;100.00;100248.84;5100912;28;20223;-83
2022/11/16 07:16:12;;;;;;;89.20;29.67;;;;;;;6.32;100.00;100248.66;5100581;28;20198;-83
2022/11/16 07:18:47;;;;;;;66.40;28.15;;;;;;;6.34;100.00;100248.47;5119836;28;20201;-82
2022/11/16 07:21:17;;;;;;;76.78;28.05;;;;;;;6.33;100.00;100246.81;5102716;28;20256;-83
2022/11/16 07:23:46;;;;;;;70.47;28.88;;;;;;;6.36;100.00;100244.56;5103041;28;20274;-82
2022/11/16 07:26:20;;;;;;;60.85;29.58;;;;;;;6.42;100.00;100253.72;5103079;28;20285;-82
2022/11/16 07:28:57;;;;;;;74.30;28.27;;;;;;;6.39;100.00;100251.41;5102568;28;20628;-83
2022/11/16 07:31:28;;;;;;;71.38;27.42;;;;;;;6.41;100.00;100244.81;5103726;28;20175;-82
2022/11/16 07:34:15;;;;;;;61.35;26.90;;;;;;;6.41;100.00;100249.34;5133969;27;20269;-83
2022/11/16 07:40:35;;;;;;;62.90;25.52;;;;;;;6.30;100.00;100253.38;5127961;28;20218;-81
2022/11/16 07:43:11;;;;;;;89.32;30.98;;;;;;;6.34;100.00;100245.78;5111622;28;20680;-83
2022/11/16 07:46:10;;;;;;;82.18;29.95;;;;;;;6.30;100.00;100248.00;5123672;27;20194;-80
2022/11/16 07:48:59;;;;;;;72.35;26.45;;;;;;;6.31;100.00;100246.97;5088703;28;20608;-82
2022/11/16 07:51:47;;;;;;;73.63;27.92;;;;;;;6.46;100.00;100255.81;5102736;28;20198;-80
2022/11/16 07:54:35;;;;;;;87.38;28.92;;;;;;;6.37;100.00;100248.06;5118127;28;20283;-82
2022/11/16 07:57:05;;;;;;;73.30;28.10;;;;;;;6.38;100.00;100249.75;5104561;28;20217;-81
2022/11/16 07:59:34;;;;;;;72.22;27.30;;;;;;;6.40;100.00;100253.91;5109886;28;20240;-82
2022/11/16 08:02:06;;;;;;;79.93;28.40;;;;;;;6.35;100.00;100261.69;5108264;28;20222;-82
2022/11/16 08:04:37;;;;;;;69.28;28.30;;;;;;;6.40;100.00;100255.75;5107605;28;20704;-82
2022/11/16 08:07:07;;;;;;;70.97;26.42;;;;;;;6.40;100.00;100264.66;5122223;28;20176;-80
2022/11/16 08:09:43;;;;;;;72.38;26.25;;;;;;;6.37;100.00;100267.72;5103679;28;20193;-81
2022/11/16 08:12:15;;;;;;;82.95;30.38;;;;;;;6.44;100.00;100262.41;5107506;28;20197;-82
2022/11/16 08:14:44;;;;;;;75.38;25.80;;;;;;;6.52;100.00;100268.50;5131108;28;20209;-81
2022/11/16 08:17:16;;;;;;;57.92;23.88;;;;;;;6.48;100.00;100258.34;5130676;28;20241;-80
2022/11/16 08:20:37;;;;;;;66.10;24.52;;;;;;;6.37;100.00;100262.34;5141435;28;20213;-81
2022/11/16 08:23:07;;;;;;;69.60;26.42;;;;;;;6.42;100.00;100257.25;5132815;28;20189;-82
2022/11/16 08:25:37;;;;;;;52.47;22.92;;;;;;;6.55;100.00;100265.44;5113766;28;20710;-82
2022/11/16 08:28:07;;;;;;;62.83;25.13;;;;;;;6.52;100.00;100257.75;5129232;28;20201;-82
2022/11/16 08:30:38;;;;;;;61.72;22.13;;;;;;;6.48;100.00;100256.47;5129557;28;20179;-81
2022/11/16 08:33:10;;;;;;;77.95;27.67;;;;;;;6.47;100.00;100257.50;5108447;28;20210;-82
2022/11/16 08:35:39;;;;;;;76.70;24.98;;;;;;;6.56;100.00;100250.13;5127004;28;20263;-82
2022/11/16 08:38:08;;;;;;;67.85;24.00;;;;;;;6.54;100.00;100247.63;5105471;28;20283;-81
2022/11/16 08:40:37;;;;;;;57.58;20.67;;;;;;;6.62;100.00;100240.47;5107799;28;20230;-82
2022/11/16 08:43:06;;;;;;;58.78;23.88;;;;;;;6.54;100.00;100236.03;5110447;28;20311;-83
2022/11/16 08:45:36;;;;;;;55.47;19.80;;;;;;;6.57;100.00;100235.69;5130560;28;20254;-82
2022/11/16 08:48:06;;;;;;;48.15;21.27;;;;;;;6.57;100.00;100237.53;5109599;28;20194;-82
2022/11/16 08:50:38;;;;;;;63.83;27.13;;;;;;;6.54;100.00;100231.50;5110085;28;20190;-82
2022/11/16 08:53:27;;;;;;;54.10;21.58;;;;;;;6.59;100.00;100228.22;5110106;28;20218;-82
2022/11/16 08:56:02;;;;;;;53.90;22.83;;;;;;;6.57;100.00;100226.78;5112233;28;20214;-83
2022/11/16 08:58:32;;;;;;;70.72;23.48;;;;;;;6.60;100.00;100223.69;5111940;28;20209;-83
2022/11/16 09:01:08;;;;;;;61.05;24.23;;;;;;;6.65;100.00;100221.25;5114221;28;20199;-83
2022/11/16 09:03:38;;;;;;;51.67;19.98;;;;;;;6.67;100.00;100217.38;5127975;28;20206;-81
2022/11/16 09:06:10;;;;;;;64.78;24.15;;;;;;;6.61;100.00;100217.28;5108268;28;20195;-83
2022/11/16 09:08:41;;;;;;;51.60;22.50;;;;;;;6.60;100.00;100210.25;5132566;28;20163;-82
2022/11/16 09:11:12;;;;;;;49.85;19.80;;;;;;;6.55;100.00;100211.66;5131506;28;20254;-83
2022/11/16 09:13:41;;;;;;;51.42;23.50;;;;;;;6.51;100.00;100201.50;5130890;28;20226;-82
2022/11/16 09:24:13;;;;;;;52.20;21.42;;;;;;;6.61;100.00;100207.38;5060729;28;20254;-82
2022/11/16 09:26:43;;;;;;;43.30;17.35;;;;;;;6.66;100.00;100214.88;5071129;27;20246;-82
2022/11/16 09:29:14;;;;;;;48.25;17.85;;;;;;;6.59;100.00;100208.59;5130612;28;20171;-82
2022/11/16 09:31:44;;;;;;;32.65;16.55;;;;;;;6.62;100.00;100208.22;5116322;28;20688;-82
2022/11/16 09:34:13;;;;;;;33.10;14.88;;;;;;;6.53;100.00;100194.88;5138829;28;20211;-81
2022/11/16 09:36:42;;;;;;;26.65;13.68;;;;;;;6.47;100.00;100200.22;5136917;28;20198;-82
2022/11/16 09:39:13;;;;;;;29.52;16.42;;;;;;;6.43;100.00;100199.78;5134515;27;20197;-82
2022/11/16 09:42:24;;;;;;;42.92;15.05;;;;;;;6.37;100.00;100195.16;5120959;28;20212;-82
2022/11/16 09:45:03;;;;;;;31.75;17.27;;;;;;;6.40;100.00;100194.78;5139834;28;20195;-80
2022/11/16 09:47:44;;;;;;;34.05;15.65;;;;;;;6.35;100.00;100189.13;5140722;28;20155;-79
2022/11/16 09:50:34;;;;;;;27.88;14.90;;;;;;;6.37;100.00;100194.34;5141380;28;20194;-81
2022/11/16 09:53:19;;;;;;;39.05;18.55;;;;;;;6.36;100.00;100193.50;5140643;28;20162;-81
2022/11/16 09:55:51;;;;;;;33.72;15.65;;;;;;;6.31;100.00;100187.88;5141774;28;20162;-79
2022/11/16 09:58:26;;;;;;;28.58;14.68;;;;;;;6.24;100.00;100184.28;5148170;27;20162;-80
2022/11/16 10:01:06;;;;;;;33.72;14.77;;;;;;;6.23;100.00;100177.25;5162259;27;20186;-80
2022/11/16 10:03:43;;;;;;;34.75;16.77;;;;;;;6.24;100.00;100183.47;5154361;27;20217;-79
2022/11/16 10:06:20;;;;;;;30.73;14.82;;;;;;;6.20;100.00;100191.03;5150242;27;20235;-81
2022/11/16 10:08:51;;;;;;;46.63;19.13;;;;;;;6.20;100.00;100179.47;5139793;27;20218;-81
2022/11/16 10:11:47;;;;;;;35.55;16.90;;;;;;;6.21;100.00;100184.66;5129523;27;20230;-81
2022/11/16 10:14:52;;;;;;;38.53;18.52;;;;;;;6.23;100.00;100182.63;5140898;27;20241;-81
2022/11/16 10:17:32;;;;;;;34.83;17.77;;;;;;;6.30;100.00;100183.50;5135567;27;20191;-82
2022/11/16 10:20:18;;;;;;;31.95;19.05;;;;;;;6.32;100.00;100175.25;5133963;27;20195;-82
2022/11/16 10:22:58;;;;;;;34.90;18.15;;;;;;;6.33;100.00;100179.63;5126795;27;20195;-80
2022/11/16 10:25:34;;;;;;;31.95;15.15;;;;;;;6.36;100.00;100177.38;5132025;27;20207;-81
2022/11/16 10:28:30;;;;;;;39.58;18.90;;;;;;;6.37;100.00;100168.28;5141254;27;20189;-81
2022/11/16 10:31:09;;;;;;;35.10;15.85;;;;;;;6.37;100.00;100181.72;5114190;28;20214;-81
2022/11/16 10:33:41;;;;;;;30.08;16.65;;;;;;;6.36;100.00;100166.63;5126939;28;20210;-80
2022/11/16 10:36:14;;;;;;;33.38;16.88;;;;;;;6.44;100.00;100163.78;5126211;28;20198;-81
2022/11/16 10:38:45;;;;;;;34.15;16.83;;;;;;;6.41;100.00;100160.66;5132032;27;20186;-81
2022/11/16 10:41:21;;;;;;;36.55;17.55;;;;;;;6.24;100.00;100159.28;5142125;27;20277;-80
2022/11/16 10:43:51;;;;;;;33.25;17.60;;;;;;;6.28;100.00;100156.00;5129707;28;20194;-80
2022/11/16 10:46:26;;;;;;;31.10;19.25;;;;;;;6.31;100.00;100152.94;5130042;28;20213;-81
2022/11/16 10:49:04;;;;;;;33.90;16.27;;;;;;;6.31;100.00;100157.47;5133214;27;20178;-80
2022/11/16 10:51:34;;;;;;;43.03;21.13;;;;;;;6.29;100.00;100149.63;5149765;27;20212;-80
2022/11/16 10:54:11;;;;;;;32.25;16.50;;;;;;;6.32;100.00;100151.91;5137365;27;20201;-79
2022/11/16 10:56:44;;;;;;;40.78;21.48;;;;;;;6.28;100.00;100152.50;5147568;27;20193;-80
2022/11/16 10:59:16;;;;;;;43.83;19.42;;;;;;;6.33;100.00;100145.53;5132892;27;20661;-81
2022/11/16 11:01:49;;;;;;;43.97;19.48;;;;;;;6.44;100.00;100144.97;5122704;27;20205;-80
2022/11/16 11:04:23;;;;;;;46.63;21.25;;;;;;;6.47;100.00;100136.56;5148502;27;20221;-79
2022/11/16 11:06:55;;;;;;;43.70;18.77;;;;;;;6.50;100.00;100151.44;5148761;27;20551;-81
2022/11/16 11:09:27;;;;;;;37.70;17.95;;;;;;;6.49;100.00;100145.22;5135529;27;20201;-80
2022/11/16 11:15:05;;;;;;;42.63;18.60;;;;;;;6.51;100.00;100148.56;5124282;27;20214;-80
2022/11/16 11:17:37;;;;;;;31.90;17.33;;;;;;;6.59;100.00;100146.75;5135801;27;20562;-80
2022/11/16 11:20:19;;;;;;;34.75;21.38;;;;;;;6.61;100.00;100155.47;5114376;28;20672;-80
2022/11/16 11:22:53;;;;;;;37.75;20.38;;;;;;;6.63;100.00;100145.38;5123752;28;20293;-81
2022/11/16 11:25:26;;;;;;;47.95;22.33;;;;;;;6.72;100.00;100144.19;5123817;28;20215;-81
2022/11/16 11:28:08;;;;;;;40.40;20.20;;;;;;;6.71;100.00;100150.59;5128991;27;20281;-81
2022/11/16 11:30:40;;;;;;;40.50;19.88;;;;;;;6.60;100.00;100154.63;5145024;27;20170;-80
2022/11/16 11:33:11;;;;;;;41.15;18.30;;;;;;;6.63;100.00;100156.94;5134227;27;20255;-80
2022/11/16 11:39:06;;;;;;;39.85;20.70;;;;;;;6.59;100.00;100160.19;5132548;27;20218;-81
2022/11/16 11:42:05;;;;;;;45.53;21.42;;;;;;;6.61;100.00;100158.16;5105420;28;20217;-81
2022/11/16 11:44:56;;;;;;;37.50;19.88;;;;;;;6.58;100.00;100156.69;5122631;28;20222;-82
2022/11/16 11:47:46;;;;;;;48.25;20.00;;;;;;;6.61;99.87;100160.84;5106359;28;20310;-80
2022/11/16 11:54:22;;;;;;;35.53;18.35;;;;;;;6.62;99.77;100149.06;5124219;28;20233;-79
2022/11/16 11:56:51;;;;;;;43.13;20.10;;;;;;;6.55;99.88;100147.16;5110807;27;20189;-80
2022/11/16 11:59:25;;;;;;;42.58;20.75;;;;;;;6.61;99.38;100142.03;5137016;27;20190;-80
2022/11/16 12:02:10;;;;;;;49.05;20.08;;;;;;;6.69;99.07;100144.56;5088724;28;20207;-81
2022/11/16 12:05:14;;;;;;;38.78;19.50;;;;;;;6.71;98.90;100147.91;5107336;28;20219;-81
2022/11/16 12:07:59;;;;;;;47.13;20.17;;;;;;;6.75;98.65;100146.47;5100230;28;20191;-80
2022/11/16 12:10:41;;;;;;;35.60;20.83;;;;;;;6.82;98.01;100150.06;5100070;28;20913;-80
2022/11/16 12:13:38;;;;;;;41.83;20.02;;;;;;;6.84;97.17;100156.06;5111461;28;20250;-81
2022/11/16 12:16:16;;;;;;;29.85;19.35;;;;;;;6.89;96.88;100156.31;5122592;28;20254;-81
2022/11/16 12:19:01;;;;;;;43.47;20.05;;;;;;;6.85;96.88;100150.50;5121848;28;20254;-82
2022/11/16 12:21:44;;;;;;;38.08;17.88;;;;;;;6.91;96.64;100157.78;5119880;28;20183;-82
2022/11/16 12:24:32;;;;;;;37.33;19.60;;;;;;;6.84;96.10;100162.28;5120747;28;20293;-80
2022/11/16 12:27:13;;;;;;;34.70;18.40;;;;;;;6.91;95.66;100151.56;5122266;28;20186;-82
2022/11/16 12:29:53;;;;;;;35.88;19.67;;;;;;;6.85;95.81;100153.19;5128914;28;20190;-79
2022/11/16 12:32:44;;;;;;;42.20;22.35;;;;;;;6.90;95.87;100157.97;5128102;28;20208;-81
2022/11/16 12:35:31;;;;;;;33.58;17.67;;;;;;;6.90;95.10;100157.97;5117615;28;20229;-81
2022/11/16 12:38:12;;;;;;;27.20;15.77;;;;;;;6.86;95.39;100154.84;5115508;28;20284;-82
2022/11/16 12:40:56;;;;;;;26.80;17.88;;;;;;;6.91;94.99;100155.09;5140604;27;20200;-82
2022/11/16 12:43:36;;;;;;;32.15;15.40;;;;;;;6.89;94.37;100150.91;5126219;27;20221;-81
2022/11/16 12:46:16;;;;;;;36.83;19.15;;;;;;;6.82;94.31;100153.59;5123819;28;20190;-82